This is the latest recevied weather packets stored in our database for station/object SQ8AQL-16. If no packets are shown the sender has not sent any weather packets the latest 10 day(s).
| Time | Temp. | Humidity | Pressure | Rain* | Wind** | Luminosity | Snow |
|---|---|---|---|---|---|---|---|
| 1777966481 | 20.56° C | 36% | 1014 hPa | - | - | 27 W/m² | - |
| 1777965580 | 20.56° C | 36% | 1014.1 hPa | - | - | 27 W/m² | - |
| 1777964679 | 19.44° C | 39% | 1014.2 hPa | - | - | 26 W/m² | - |
| 1777963778 | 18.33° C | 43% | 1014.3 hPa | - | - | 23 W/m² | - |
| 1777962877 | 17.78° C | 43% | 1014.3 hPa | - | - | 22 W/m² | - |
| 1777961976 | 16.67° C | 45% | 1014.3 hPa | - | - | 23 W/m² | - |
| 1777961074 | 16.11° C | 46% | 1014.3 hPa | - | - | 22 W/m² | - |
| 1777960173 | 16.11° C | 46% | 1014.4 hPa | - | - | 22 W/m² | - |
| 1777958372 | 14.44° C | 48% | 1014.6 hPa | - | - | 24 W/m² | - |
| 1777957472 | 13.33° C | 49% | 1014.5 hPa | - | - | 24 W/m² | - |
| 1777956571 | 12.22° C | 52% | 1014.5 hPa | - | - | 17 W/m² | - |
| 1777955669 | 12.22° C | 52% | 1014.5 hPa | - | - | 17 W/m² | - |
| 1777954769 | 11.67° C | 53% | 1014.4 hPa | - | - | 14 W/m² | - |
| 1777953868 | 11.67° C | 53% | 1014.4 hPa | - | - | 10 W/m² | - |
| 1777943056 | 13.33° C | 49% | 1014.7 hPa | - | - | - | - |
| 1777942155 | 13.33° C | 49% | 1014.8 hPa | - | - | - | - |
| 1777941254 | 13.33° C | 48% | 1014.9 hPa | - | - | - | - |
| 1777937650 | 14.44° C | 46% | 1015.1 hPa | - | - | - | - |
| 1777929541 | 17.78° C | 36% | 1014.8 hPa | - | - | - | - |
| 1777925035 | 19.44° C | 32% | 1014.5 hPa | - | - | - | - |
| 1777923233 | 24.44° C | 27% | 1014.6 hPa | - | - | 6 W/m² | - |
| 1777922332 | 24.44° C | 27% | 1014.5 hPa | - | - | 6 W/m² | - |
| 1777921432 | 24.44° C | 27% | 1014.4 hPa | - | - | 6 W/m² | - |
| 1777919629 | 24.44° C | 27% | 1014.4 hPa | - | - | 6 W/m² | - |
| 1777918728 | 24.44° C | 27% | 1014.3 hPa | - | - | 6 W/m² | - |
* Rain since midnight (hover to see other rain measurements)
** Current wind speed in m/s (hover to see current wind gust speed)